createdAt,value
2022-08-08T00:00:53.526Z,16.56
2022-08-08T00:02:36.162Z,16.53
2022-08-08T00:05:12.847Z,16.68
2022-08-08T00:07:49.316Z,16.85
2022-08-08T00:10:28.565Z,16.87
2022-08-08T00:13:05.372Z,16.82
2022-08-08T00:15:56.978Z,16.69
2022-08-08T00:18:36.739Z,16.57
2022-08-08T00:21:07.868Z,16.53
2022-08-08T00:23:47.379Z,16.35
2022-08-08T00:26:21.742Z,16.42
2022-08-08T00:29:00.343Z,16.53
2022-08-08T00:32:29.382Z,16.68
2022-08-08T00:34:58.075Z,16.73
2022-08-08T00:37:47.211Z,16.64
2022-08-08T00:41:09.293Z,16.48
2022-08-08T00:44:04.407Z,16.23
2022-08-08T00:47:23.074Z,16.02
2022-08-08T00:50:40.891Z,15.89
2022-08-08T00:53:43.488Z,15.86
2022-08-08T00:56:53.820Z,15.80
2022-08-08T01:00:04.962Z,15.70
2022-08-08T01:03:59.896Z,15.69
2022-08-08T01:06:16.290Z,15.79
2022-08-08T01:09:36.763Z,15.68
2022-08-08T01:13:06.080Z,15.96
2022-08-08T01:15:57.390Z,15.87
2022-08-08T01:19:42.000Z,15.81
2022-08-08T01:22:44.368Z,15.97
2022-08-08T01:25:40.707Z,16.04
2022-08-08T01:28:33.747Z,16.16
2022-08-08T01:32:14.689Z,16.13
2022-08-08T01:35:12.599Z,16.18
2022-08-08T01:38:08.989Z,16.22
2022-08-08T01:40:59.970Z,16.21
2022-08-08T01:43:40.544Z,16.12
2022-08-08T01:46:32.375Z,15.97
2022-08-08T01:49:10.934Z,15.68
2022-08-08T01:52:04.469Z,15.57
2022-08-08T01:55:45.379Z,15.74
2022-08-08T01:58:12.725Z,15.66
2022-08-08T02:00:57.562Z,15.56
2022-08-08T02:03:55.380Z,15.25
2022-08-08T02:06:53.336Z,15.04
2022-08-08T02:10:03.860Z,14.99
2022-08-08T02:12:46.765Z,15.35
2022-08-08T02:15:27.471Z,16.06
2022-08-08T02:18:05.209Z,16.01
2022-08-08T02:21:13.236Z,15.95
2022-08-08T02:23:54.623Z,15.73
2022-08-08T02:26:35.343Z,15.80
2022-08-08T02:29:24.716Z,15.74
2022-08-08T02:32:22.406Z,15.81
2022-08-08T02:35:17.584Z,15.85
2022-08-08T02:38:44.775Z,15.83
2022-08-08T02:41:58.707Z,15.65
2022-08-08T02:44:56.317Z,15.59
2022-08-08T02:48:05.054Z,15.50
2022-08-08T02:51:38.317Z,15.22
2022-08-08T02:54:55.600Z,15.02
2022-08-08T02:58:08.094Z,15.06
2022-08-08T03:01:08.582Z,15.19
2022-08-08T03:05:03.007Z,15.30
2022-08-08T03:07:58.082Z,15.32
2022-08-08T03:10:53.807Z,15.33
2022-08-08T03:16:02.364Z,15.15
2022-08-08T03:16:53.581Z,15.35
2022-08-08T03:19:54.262Z,15.27
2022-08-08T03:22:51.003Z,15.26
2022-08-08T03:25:17.923Z,15.35
2022-08-08T03:27:56.257Z,15.45
2022-08-08T03:30:26.150Z,15.50
2022-08-08T03:33:55.766Z,15.54
2022-08-08T03:36:02.954Z,15.52
2022-08-08T03:38:56.784Z,15.52
2022-08-08T03:42:12.229Z,15.50
2022-08-08T03:44:12.246Z,15.04
2022-08-08T03:46:47.219Z,14.65
2022-08-08T03:49:59.048Z,14.40
2022-08-08T03:52:13.018Z,14.07
2022-08-08T03:55:01.701Z,14.15
2022-08-08T03:58:33.247Z,14.39
2022-08-08T04:00:25.973Z,14.57
2022-08-08T04:03:03.536Z,14.55
2022-08-08T04:05:35.264Z,14.63
2022-08-08T04:08:09.669Z,14.81
2022-08-08T04:10:38.330Z,14.88
2022-08-08T04:13:18.182Z,15.00
2022-08-08T04:15:54.571Z,15.08
2022-08-08T04:18:44.998Z,15.18
2022-08-08T04:21:23.313Z,15.08
2022-08-08T04:24:05.279Z,15.10
2022-08-08T04:26:57.707Z,14.92
2022-08-08T04:29:27.809Z,14.31
2022-08-08T04:32:07.284Z,14.08
2022-08-08T04:34:56.073Z,14.19
2022-08-08T04:37:32.403Z,14.39
2022-08-08T04:40:10.737Z,14.58
2022-08-08T04:42:56.774Z,14.70
2022-08-08T04:45:29.349Z,14.66
2022-08-08T04:48:00.862Z,14.82
2022-08-08T04:50:38.670Z,15.11
2022-08-08T04:53:52.498Z,15.20
2022-08-08T04:55:59.699Z,15.16
2022-08-08T04:58:33.173Z,15.18
2022-08-08T05:01:08.830Z,15.23
2022-08-08T05:04:11.519Z,15.22
2022-08-08T05:06:31.023Z,15.30
2022-08-08T05:09:02.319Z,15.28
2022-08-08T05:11:38.719Z,15.32
2022-08-08T05:14:12.455Z,15.31
2022-08-08T05:16:52.686Z,15.40
2022-08-08T05:20:09.578Z,15.47
2022-08-08T05:22:20.283Z,15.37
2022-08-08T05:24:50.495Z,15.43
2022-08-08T05:27:23.731Z,15.54
2022-08-08T05:29:53.876Z,15.49
2022-08-08T05:32:33.090Z,15.56
2022-08-08T05:35:05.734Z,15.62
2022-08-08T05:37:53.728Z,15.59
2022-08-08T05:40:46.665Z,15.97
2022-08-08T05:43:39.473Z,16.31
2022-08-08T05:46:21.776Z,16.51
2022-08-08T05:48:55.355Z,16.64
2022-08-08T05:51:48.760Z,16.60
2022-08-08T05:54:27.066Z,16.71
2022-08-08T05:57:08.265Z,17.05
2022-08-08T05:59:59.766Z,16.98
2022-08-08T06:03:04.576Z,16.90
2022-08-08T06:05:46.759Z,17.15
2022-08-08T06:08:33.656Z,17.33
2022-08-08T06:11:08.312Z,17.49
2022-08-08T06:13:47.284Z,17.43
2022-08-08T06:16:27.269Z,17.22
2022-08-08T06:19:05.608Z,17.41
2022-08-08T06:21:51.431Z,17.36
2022-08-08T06:24:31.077Z,17.48
2022-08-08T06:27:06.075Z,17.53
2022-08-08T06:29:59.359Z,17.59
2022-08-08T06:32:31.628Z,17.76
2022-08-08T06:36:00.667Z,17.72
2022-08-08T06:38:13.945Z,17.26
2022-08-08T06:40:53.548Z,17.58
2022-08-08T06:43:36.769Z,17.69
2022-08-08T06:46:12.763Z,17.83
2022-08-08T06:48:56.238Z,17.97
2022-08-08T06:51:46.884Z,18.18
2022-08-08T06:54:23.684Z,18.35
2022-08-08T06:56:53.044Z,18.51
2022-08-08T06:59:22.818Z,18.58
2022-08-08T07:02:26.610Z,18.65
2022-08-08T07:04:55.581Z,18.81
2022-08-08T07:07:50.898Z,18.84
2022-08-08T07:10:22.288Z,18.98
2022-08-08T07:12:55.067Z,19.05
2022-08-08T07:16:05.161Z,19.10
2022-08-08T07:18:40.683Z,19.22
2022-08-08T07:21:20.564Z,19.33
2022-08-08T07:24:09.521Z,19.31
2022-08-08T07:26:53.969Z,19.25
2022-08-08T07:30:00.511Z,19.18
2022-08-08T07:32:15.825Z,19.08
2022-08-08T07:35:00.119Z,19.06
2022-08-08T07:37:56.172Z,19.02
2022-08-08T07:40:32.232Z,18.95
2022-08-08T07:43:09.457Z,18.88
2022-08-08T07:46:05.401Z,19.17
2022-08-08T07:48:35.766Z,19.51
2022-08-08T07:51:04.815Z,19.79
2022-08-08T07:54:01.458Z,19.80
2022-08-08T07:56:37.738Z,19.77
2022-08-08T07:59:15.350Z,19.89
2022-08-08T08:02:35.678Z,20.05
2022-08-08T08:04:49.099Z,20.21
2022-08-08T08:07:31.854Z,20.44
2022-08-08T08:10:05.128Z,20.42
2022-08-08T08:12:42.982Z,20.29
2022-08-08T08:15:23.235Z,20.40
2022-08-08T08:17:58.776Z,20.55
2022-08-08T08:20:30.138Z,20.68
2022-08-08T08:23:00.780Z,20.45
2022-08-08T08:25:43.619Z,20.45
2022-08-08T08:28:21.078Z,20.75
2022-08-08T08:30:51.562Z,21.08
2022-08-08T08:33:22.066Z,21.24
2022-08-08T08:36:19.724Z,21.23
2022-08-08T08:38:49.383Z,21.13
2022-08-08T08:41:20.069Z,21.25
2022-08-08T08:43:50.406Z,21.26
2022-08-08T08:46:26.019Z,21.48
2022-08-08T08:48:57.163Z,21.57
2022-08-08T08:51:28.050Z,21.57
2022-08-08T08:54:03.185Z,22.07
2022-08-08T08:56:36.975Z,22.37
2022-08-08T08:59:15.273Z,22.44
2022-08-08T09:01:57.209Z,22.55
2022-08-08T09:04:38.079Z,22.88
2022-08-08T09:07:17.268Z,22.77
2022-08-08T09:09:57.515Z,22.81
2022-08-08T09:12:34.998Z,22.86
2022-08-08T09:15:06.297Z,23.09
2022-08-08T09:17:55.507Z,23.09
2022-08-08T09:21:56.668Z,23.22
2022-08-08T09:23:25.559Z,23.40
2022-08-08T09:26:02.467Z,22.91
2022-08-08T09:28:40.074Z,23.06
2022-08-08T09:31:17.135Z,23.09
2022-08-08T09:34:15.038Z,23.03
2022-08-08T09:36:51.838Z,23.31
2022-08-08T09:39:43.975Z,23.69
2022-08-08T09:42:21.577Z,23.92
2022-08-08T09:45:08.146Z,24.22
2022-08-08T09:48:12.684Z,24.15
2022-08-08T09:50:35.716Z,24.03
2022-08-08T09:53:23.715Z,23.81
2022-08-08T09:56:04.720Z,23.48
2022-08-08T09:58:41.623Z,23.85
2022-08-08T10:01:15.521Z,23.68
2022-08-08T10:04:04.600Z,23.48
2022-08-08T10:06:42.268Z,22.88
2022-08-08T10:09:13.359Z,22.83
2022-08-08T10:12:26.083Z,22.83
2022-08-08T10:14:39.544Z,23.02
2022-08-08T10:17:56.443Z,23.55
2022-08-08T10:20:01.916Z,23.89
2022-08-08T10:22:37.622Z,23.82
2022-08-08T10:25:23.076Z,24.07
2022-08-08T10:27:54.260Z,23.97
2022-08-08T10:30:56.949Z,23.67
2022-08-08T10:33:15.336Z,23.38
2022-08-08T10:36:08.765Z,23.47
2022-08-08T10:38:46.560Z,23.22
2022-08-08T10:41:20.336Z,23.76
2022-08-08T10:43:51.541Z,23.94
2022-08-08T10:46:30.236Z,23.82
2022-08-08T10:48:59.888Z,24.57
2022-08-08T10:51:31.686Z,25.28
2022-08-08T10:54:25.101Z,25.24
2022-08-08T10:56:58.345Z,24.92
2022-08-08T10:59:30.898Z,24.23
2022-08-08T11:02:00.326Z,24.18
2022-08-08T11:04:38.983Z,24.38
2022-08-08T11:07:15.052Z,24.74
2022-08-08T11:09:57.493Z,25.43
2022-08-08T11:12:28.945Z,25.89
2022-08-08T11:14:59.802Z,25.22
2022-08-08T11:17:59.934Z,25.15
2022-08-08T11:20:25.083Z,25.23
2022-08-08T11:22:57.379Z,25.22
2022-08-08T11:25:53.057Z,24.41
2022-08-08T11:28:30.760Z,24.19
2022-08-08T11:31:03.851Z,24.10
2022-08-08T11:33:52.387Z,24.20
2022-08-08T11:36:29.105Z,24.42
2022-08-08T11:38:58.093Z,24.52
2022-08-08T11:41:33.586Z,24.75
2022-08-08T11:44:02.943Z,25.38
2022-08-08T11:46:34.387Z,25.57
2022-08-08T11:49:05.154Z,25.16
2022-08-08T11:51:40.537Z,24.92
2022-08-08T11:54:26.893Z,24.87
2022-08-08T11:57:16.646Z,25.56
2022-08-08T12:00:00.900Z,25.40
2022-08-08T12:02:48.543Z,25.75
2022-08-08T12:05:22.627Z,25.58
2022-08-08T12:07:56.011Z,25.75
2022-08-08T12:10:26.914Z,25.59
2022-08-08T12:13:05.047Z,25.10
2022-08-08T12:15:42.723Z,24.65
2022-08-08T12:18:20.644Z,24.87
2022-08-08T12:20:53.153Z,25.55
2022-08-08T12:23:40.721Z,25.40
2022-08-08T12:26:28.355Z,25.48
2022-08-08T12:29:21.717Z,26.25
2022-08-08T12:32:09.391Z,26.87
2022-08-08T12:34:40.153Z,27.35
2022-08-08T12:37:11.311Z,27.64
2022-08-08T12:40:00.457Z,27.11
2022-08-08T12:42:33.654Z,26.84
2022-08-08T12:45:58.072Z,26.28
2022-08-08T12:48:09.609Z,27.03
2022-08-08T12:50:47.965Z,26.58
2022-08-08T12:53:21.609Z,26.81
2022-08-08T12:56:08.772Z,26.24
2022-08-08T12:58:47.598Z,25.21
2022-08-08T13:01:16.925Z,25.35
2022-08-08T13:03:52.615Z,25.74
2022-08-08T13:06:22.762Z,25.89
2022-08-08T13:08:56.306Z,26.17
2022-08-08T13:11:28.688Z,26.63
2022-08-08T13:14:15.852Z,26.70
2022-08-08T13:16:49.403Z,26.77
2022-08-08T13:19:20.238Z,26.97
2022-08-08T13:22:04.826Z,27.01
2022-08-08T13:24:40.655Z,27.47
2022-08-08T13:27:15.688Z,27.82
2022-08-08T13:29:52.723Z,27.25
2022-08-08T13:32:25.266Z,26.41
2022-08-08T13:34:55.515Z,26.49
2022-08-08T13:37:52.267Z,26.95
2022-08-08T13:40:17.897Z,27.39
2022-08-08T13:42:55.043Z,27.61
2022-08-08T13:45:24.263Z,27.45
2022-08-08T13:47:59.259Z,27.41
2022-08-08T13:50:39.201Z,27.60
2022-08-08T13:53:28.242Z,27.86
2022-08-08T13:56:05.219Z,28.09
2022-08-08T13:58:34.620Z,28.25
2022-08-08T14:01:13.614Z,27.91
2022-08-08T14:03:54.953Z,28.13
2022-08-08T14:06:34.119Z,28.20
2022-08-08T14:09:25.568Z,27.74
2022-08-08T14:11:52.316Z,27.79
2022-08-08T14:14:26.309Z,27.82
2022-08-08T14:16:57.450Z,27.72
2022-08-08T14:19:57.463Z,27.50
2022-08-08T14:22:27.433Z,27.11
2022-08-08T14:24:59.850Z,27.25
2022-08-08T14:27:30.024Z,27.55
2022-08-08T14:30:03.842Z,27.72
2022-08-08T14:32:47.283Z,27.98
2022-08-08T14:35:34.993Z,27.91
2022-08-08T14:38:33.691Z,27.96
2022-08-08T14:40:59.576Z,27.63
2022-08-08T14:44:02.886Z,26.99
2022-08-08T14:46:19.024Z,26.93
2022-08-08T14:49:02.503Z,27.41
2022-08-08T14:51:51.803Z,27.64
2022-08-08T14:54:29.344Z,27.87
2022-08-08T14:56:57.994Z,27.67
2022-08-08T14:59:43.909Z,27.18
2022-08-08T15:02:15.334Z,27.38
2022-08-08T15:04:43.837Z,27.70
2022-08-08T15:07:24.277Z,27.44
2022-08-08T15:10:02.785Z,27.73
2022-08-08T15:12:31.952Z,27.68
2022-08-08T15:15:00.122Z,27.42
2022-08-08T15:17:27.951Z,27.72
2022-08-08T15:19:55.715Z,27.65
2022-08-08T15:22:25.183Z,28.05
2022-08-08T15:24:54.232Z,28.11
2022-08-08T15:28:04.376Z,27.93
2022-08-08T15:30:14.420Z,27.86
2022-08-08T15:32:43.249Z,28.03
2022-08-08T15:47:34.115Z,28.04
2022-08-08T15:50:02.480Z,28.40
2022-08-08T15:52:33.204Z,28.33
2022-08-08T15:55:02.210Z,27.97
2022-08-08T15:57:35.625Z,27.64
2022-08-08T16:00:27.290Z,27.84
2022-08-08T16:02:59.311Z,27.86
2022-08-08T16:05:36.047Z,27.97
2022-08-08T16:13:30.575Z,27.42
2022-08-08T16:16:09.266Z,27.46
2022-08-08T16:18:57.337Z,27.70
2022-08-08T16:21:27.706Z,27.61
2022-08-08T16:23:55.380Z,27.79
2022-08-08T16:26:33.661Z,27.71
2022-08-08T16:33:13.807Z,27.49
2022-08-08T16:35:41.407Z,27.32
2022-08-08T16:38:12.421Z,27.38
2022-08-08T16:40:43.053Z,27.41
2022-08-08T16:43:11.622Z,27.40
2022-08-08T16:46:37.692Z,27.58
2022-08-08T16:48:26.653Z,27.60
2022-08-08T16:56:03.126Z,27.32
2022-08-08T16:58:34.989Z,27.18
2022-08-08T17:01:05.504Z,27.00
2022-08-08T17:03:59.164Z,26.77
2022-08-08T17:06:37.099Z,26.63
2022-08-08T17:09:06.000Z,26.66
2022-08-08T17:15:34.686Z,26.27
2022-08-08T17:18:15.945Z,26.42
2022-08-08T17:20:42.737Z,26.45
2022-08-08T17:26:06.190Z,26.52
2022-08-08T17:28:35.232Z,26.40
2022-08-08T17:31:43.651Z,26.28
2022-08-08T17:50:01.046Z,25.23
2022-08-08T17:52:30.100Z,25.07
2022-08-08T17:54:57.512Z,24.92
2022-08-08T17:57:25.047Z,24.71
2022-08-08T17:59:59.079Z,24.63
2022-08-08T18:02:31.389Z,24.44
2022-08-08T18:05:00.626Z,24.38
2022-08-08T18:10:06.787Z,24.38
2022-08-08T18:12:34.058Z,24.46
2022-08-08T18:15:01.007Z,24.57
2022-08-08T18:17:28.744Z,24.31
2022-08-08T18:20:36.920Z,23.89
2022-08-08T18:23:00.974Z,23.55
2022-08-08T18:25:37.654Z,23.35
2022-08-08T18:32:26.334Z,22.90
2022-08-08T18:34:55.355Z,22.79
2022-08-08T18:37:34.458Z,22.71
2022-08-08T18:40:01.482Z,22.55
2022-08-08T18:42:28.112Z,22.31
2022-08-08T18:44:57.239Z,22.02
2022-08-08T18:52:27.754Z,21.47
2022-08-08T18:54:59.376Z,21.44
2022-08-08T18:57:41.375Z,21.41
2022-08-08T19:00:17.032Z,21.34
2022-08-08T19:02:55.810Z,21.30
2022-08-08T19:05:32.214Z,21.25
2022-08-08T19:08:24.708Z,21.15
2022-08-08T19:15:58.739Z,20.51
2022-08-08T19:18:33.617Z,20.37
2022-08-08T19:21:29.196Z,20.20
2022-08-08T19:23:58.250Z,20.15
2022-08-08T19:26:30.265Z,20.19
2022-08-08T19:28:57.908Z,20.17
2022-08-08T19:31:31.481Z,20.05
2022-08-08T19:39:09.772Z,19.82
2022-08-08T19:41:36.522Z,19.71
2022-08-08T19:44:13.225Z,19.59
2022-08-08T19:46:49.760Z,19.47
2022-08-08T19:49:16.382Z,19.46
2022-08-08T19:51:45.456Z,19.42
2022-08-08T19:54:13.069Z,19.32
2022-08-08T20:02:01.335Z,19.36
2022-08-08T20:04:29.442Z,19.42
2022-08-08T20:06:57.765Z,19.43
2022-08-08T20:09:25.775Z,19.53
2022-08-08T20:11:56.753Z,19.53
2022-08-08T20:14:33.693Z,19.49
2022-08-08T20:17:04.495Z,19.41
2022-08-08T20:24:29.667Z,19.31
2022-08-08T20:26:56.142Z,19.31
2022-08-08T20:29:24.476Z,19.32
2022-08-08T20:32:14.160Z,19.31
2022-08-08T20:34:47.753Z,19.34
2022-08-08T20:37:20.560Z,19.38
2022-08-08T20:39:51.796Z,19.42
2022-08-08T20:47:23.408Z,19.41
2022-08-08T20:49:50.991Z,19.31
2022-08-08T20:52:24.973Z,19.26
2022-08-08T20:54:51.518Z,19.11
2022-08-08T20:57:19.193Z,19.12
2022-08-08T20:59:47.715Z,19.10
2022-08-08T21:02:20.014Z,19.12
2022-08-08T21:10:07.744Z,18.87
2022-08-08T21:12:38.704Z,18.65
2022-08-08T21:15:09.591Z,18.53
2022-08-08T21:17:36.610Z,18.36
2022-08-08T21:20:04.091Z,18.21
2022-08-08T21:22:30.702Z,18.08
2022-08-08T21:24:58.352Z,17.94
2022-08-08T21:32:28.192Z,17.62
2022-08-08T21:34:56.518Z,17.54
2022-08-08T21:37:55.322Z,17.47
2022-08-08T21:40:12.800Z,17.41
2022-08-08T21:42:39.525Z,17.42
2022-08-08T21:45:44.806Z,17.39
2022-08-08T21:48:02.062Z,17.36
2022-08-08T21:56:26.658Z,16.98
2022-08-08T21:58:37.718Z,16.88
2022-08-08T22:01:05.054Z,16.69
2022-08-08T22:03:43.781Z,16.64
2022-08-08T22:06:31.523Z,16.56
2022-08-08T22:08:59.781Z,16.53
2022-08-08T22:12:02.815Z,16.56
2022-08-08T22:19:23.957Z,16.51
2022-08-08T22:21:51.056Z,16.58
2022-08-08T22:24:17.530Z,16.63
2022-08-08T22:27:01.797Z,16.55
2022-08-08T22:30:01.106Z,16.39
2022-08-08T22:32:15.870Z,16.63
2022-08-08T22:34:50.683Z,16.82
2022-08-08T22:42:27.108Z,16.72
2022-08-08T22:44:58.090Z,16.72
2022-08-08T22:47:34.529Z,16.71
2022-08-08T22:50:18.236Z,16.85
2022-08-08T22:53:22.309Z,17.61
2022-08-08T22:55:58.065Z,17.84
2022-08-08T23:01:30.170Z,17.72
2022-08-08T23:03:56.241Z,17.68
2022-08-08T23:06:24.089Z,17.47
2022-08-08T23:08:55.563Z,17.13
2022-08-08T23:11:30.843Z,17.06
2022-08-08T23:14:13.633Z,16.97
2022-08-08T23:19:17.637Z,16.80
2022-08-08T23:21:45.853Z,16.67
2022-08-08T23:24:13.618Z,16.67
2022-08-08T23:26:53.470Z,16.47
2022-08-08T23:29:23.843Z,16.49
2022-08-08T23:31:50.372Z,16.58
2022-08-08T23:34:19.601Z,16.54
2022-08-08T23:41:50.485Z,16.47
2022-08-08T23:44:20.303Z,16.37
2022-08-08T23:49:08.140Z,16.37
2022-08-08T23:49:37.949Z,16.38
2022-08-08T23:52:08.843Z,16.27
2022-08-08T23:54:41.666Z,16.13
2022-08-08T23:57:26.784Z,15.97
